sensor_id;sensor_type;location;lat;lon;timestamp;temperature;humidity
20658;DHT22;10488;50.846;4.078;2023-05-02T00:02:10;10.90;99.90
20658;DHT22;10488;50.846;4.078;2023-05-02T00:04:35;11.00;99.90
20658;DHT22;10488;50.846;4.078;2023-05-02T00:07:01;11.10;99.90
20658;DHT22;10488;50.846;4.078;2023-05-02T00:09:28;11.10;99.90
20658;DHT22;10488;50.846;4.078;2023-05-02T00:11:54;11.10;99.90
20658;DHT22;10488;50.846;4.078;2023-05-02T00:14:20;11.20;99.90
20658;DHT22;10488;50.846;4.078;2023-05-02T00:16:45;11.20;99.90
20658;DHT22;10488;50.846;4.078;2023-05-02T00:19:11;11.20;99.90
20658;DHT22;10488;50.846;4.078;2023-05-02T00:21:37;11.20;99.90
20658;DHT22;10488;50.846;4.078;2023-05-02T00:24:03;11.10;99.90
20658;DHT22;10488;50.846;4.078;2023-05-02T00:26:28;11.20;99.90
20658;DHT22;10488;50.846;4.078;2023-05-02T00:28:55;11.20;99.90
20658;DHT22;10488;50.846;4.078;2023-05-02T00:31:21;11.30;99.90
20658;DHT22;10488;50.846;4.078;2023-05-02T00:33:47;11.40;99.90
20658;DHT22;10488;50.846;4.078;2023-05-02T00:36:17;11.50;99.90
20658;DHT22;10488;50.846;4.078;2023-05-02T00:38:43;11.40;99.90
20658;DHT22;10488;50.846;4.078;2023-05-02T00:41:09;11.50;99.90
20658;DHT22;10488;50.846;4.078;2023-05-02T00:43:36;11.50;99.90
20658;DHT22;10488;50.846;4.078;2023-05-02T00:46:04;11.60;99.90
20658;DHT22;10488;50.846;4.078;2023-05-02T00:48:30;11.60;99.90
20658;DHT22;10488;50.846;4.078;2023-05-02T00:50:57;11.70;99.90
20658;DHT22;10488;50.846;4.078;2023-05-02T00:53:23;11.60;99.90
20658;DHT22;10488;50.846;4.078;2023-05-02T00:55:49;11.60;99.90
20658;DHT22;10488;50.846;4.078;2023-05-02T00:58:16;11.60;99.90
20658;DHT22;10488;50.846;4.078;2023-05-02T01:03:19;11.70;99.90
20658;DHT22;10488;50.846;4.078;2023-05-02T01:08:39;11.60;99.90
20658;DHT22;10488;50.846;4.078;2023-05-02T01:11:16;11.40;99.90
20658;DHT22;10488;50.846;4.078;2023-05-02T01:13:49;11.40;99.90
20658;DHT22;10488;50.846;4.078;2023-05-02T01:16:17;11.60;99.90
20658;DHT22;10488;50.846;4.078;2023-05-02T01:18:45;11.70;99.90
20658;DHT22;10488;50.846;4.078;2023-05-02T01:21:11;11.70;99.90
20658;DHT22;10488;50.846;4.078;2023-05-02T01:29:07;11.60;99.90
20658;DHT22;10488;50.846;4.078;2023-05-02T01:31:39;11.70;99.90
20658;DHT22;10488;50.846;4.078;2023-05-02T01:34:09;11.80;99.90
20658;DHT22;10488;50.846;4.078;2023-05-02T01:36:36;11.70;99.90
20658;DHT22;10488;50.846;4.078;2023-05-02T01:39:04;11.50;99.90
20658;DHT22;10488;50.846;4.078;2023-05-02T01:41:32;11.40;99.90
20658;DHT22;10488;50.846;4.078;2023-05-02T01:44:01;11.50;99.90
20658;DHT22;10488;50.846;4.078;2023-05-02T01:46:30;11.50;99.90
20658;DHT22;10488;50.846;4.078;2023-05-02T01:48:58;11.60;99.90
20658;DHT22;10488;50.846;4.078;2023-05-02T01:51:29;11.60;99.90
20658;DHT22;10488;50.846;4.078;2023-05-02T01:53:58;11.70;99.90
20658;DHT22;10488;50.846;4.078;2023-05-02T01:56:26;11.70;99.90
20658;DHT22;10488;50.846;4.078;2023-05-02T01:58:54;11.80;99.90
20658;DHT22;10488;50.846;4.078;2023-05-02T02:01:22;11.80;99.90
20658;DHT22;10488;50.846;4.078;2023-05-02T02:03:53;11.70;99.90
20658;DHT22;10488;50.846;4.078;2023-05-02T02:06:20;11.80;99.90
20658;DHT22;10488;50.846;4.078;2023-05-02T02:08:46;11.70;99.90
20658;DHT22;10488;50.846;4.078;2023-05-02T02:11:16;11.50;99.90
20658;DHT22;10488;50.846;4.078;2023-05-02T02:13:48;11.40;99.90
20658;DHT22;10488;50.846;4.078;2023-05-02T02:16:20;11.40;99.90
20658;DHT22;10488;50.846;4.078;2023-05-02T02:18:48;11.50;99.90
20658;DHT22;10488;50.846;4.078;2023-05-02T02:21:17;11.60;99.90
20658;DHT22;10488;50.846;4.078;2023-05-02T02:23:46;11.20;99.90
20658;DHT22;10488;50.846;4.078;2023-05-02T02:26:14;11.50;99.90
20658;DHT22;10488;50.846;4.078;2023-05-02T02:28:41;11.50;99.90
20658;DHT22;10488;50.846;4.078;2023-05-02T02:31:07;11.50;99.90
20658;DHT22;10488;50.846;4.078;2023-05-02T02:33:33;11.50;99.90
20658;DHT22;10488;50.846;4.078;2023-05-02T02:36:30;11.50;99.90
20658;DHT22;10488;50.846;4.078;2023-05-02T02:45:00;11.60;99.90
20658;DHT22;10488;50.846;4.078;2023-05-02T02:53:16;11.10;99.90
20658;DHT22;10488;50.846;4.078;2023-05-02T02:56:04;11.10;99.90
20658;DHT22;10488;50.846;4.078;2023-05-02T02:59:01;11.30;99.90
20658;DHT22;10488;50.846;4.078;2023-05-02T03:01:30;11.30;99.90
20658;DHT22;10488;50.846;4.078;2023-05-02T03:03:57;11.40;99.90
20658;DHT22;10488;50.846;4.078;2023-05-02T03:06:23;11.20;99.90
20658;DHT22;10488;50.846;4.078;2023-05-02T03:08:49;11.10;99.90
20658;DHT22;10488;50.846;4.078;2023-05-02T03:11:15;11.10;99.90
20658;DHT22;10488;50.846;4.078;2023-05-02T03:13:41;11.10;99.90
20658;DHT22;10488;50.846;4.078;2023-05-02T03:16:35;10.90;99.90
20658;DHT22;10488;50.846;4.078;2023-05-02T03:19:04;11.00;99.90
20658;DHT22;10488;50.846;4.078;2023-05-02T03:21:31;10.80;99.90
20658;DHT22;10488;50.846;4.078;2023-05-02T03:24:02;10.60;99.90
20658;DHT22;10488;50.846;4.078;2023-05-02T03:26:28;10.30;99.90
20658;DHT22;10488;50.846;4.078;2023-05-02T03:28:55;10.20;99.90
20658;DHT22;10488;50.846;4.078;2023-05-02T03:31:21;10.20;99.90
20658;DHT22;10488;50.846;4.078;2023-05-02T03:33:48;10.30;99.90
20658;DHT22;10488;50.846;4.078;2023-05-02T03:36:14;10.20;99.90
20658;DHT22;10488;50.846;4.078;2023-05-02T03:38:40;10.20;99.90
20658;DHT22;10488;50.846;4.078;2023-05-02T03:41:05;10.20;99.90
20658;DHT22;10488;50.846;4.078;2023-05-02T03:43:31;10.10;99.90
20658;DHT22;10488;50.846;4.078;2023-05-02T03:45:57;10.00;99.90
20658;DHT22;10488;50.846;4.078;2023-05-02T03:48:23;10.10;99.90
20658;DHT22;10488;50.846;4.078;2023-05-02T03:50:49;10.10;99.90
20658;DHT22;10488;50.846;4.078;2023-05-02T03:53:15;10.20;99.90
20658;DHT22;10488;50.846;4.078;2023-05-02T03:55:42;10.00;99.90
20658;DHT22;10488;50.846;4.078;2023-05-02T03:58:09;10.20;99.90
20658;DHT22;10488;50.846;4.078;2023-05-02T04:00:35;10.20;99.90
20658;DHT22;10488;50.846;4.078;2023-05-02T04:03:01;10.20;99.90
20658;DHT22;10488;50.846;4.078;2023-05-02T04:05:27;10.20;99.90
20658;DHT22;10488;50.846;4.078;2023-05-02T04:07:54;10.30;99.90
20658;DHT22;10488;50.846;4.078;2023-05-02T04:10:19;10.50;99.90
20658;DHT22;10488;50.846;4.078;2023-05-02T04:12:45;10.70;99.90
20658;DHT22;10488;50.846;4.078;2023-05-02T04:15:11;10.70;99.90
20658;DHT22;10488;50.846;4.078;2023-05-02T04:17:37;10.60;99.90
20658;DHT22;10488;50.846;4.078;2023-05-02T04:20:04;10.50;99.90
20658;DHT22;10488;50.846;4.078;2023-05-02T04:22:30;10.30;99.90
20658;DHT22;10488;50.846;4.078;2023-05-02T04:24:56;10.30;99.90
20658;DHT22;10488;50.846;4.078;2023-05-02T04:27:22;10.30;99.90
20658;DHT22;10488;50.846;4.078;2023-05-02T04:29:48;10.10;99.90
20658;DHT22;10488;50.846;4.078;2023-05-02T04:32:14;10.10;99.90
20658;DHT22;10488;50.846;4.078;2023-05-02T04:34:40;10.00;99.90
20658;DHT22;10488;50.846;4.078;2023-05-02T04:37:06;9.70;99.90
20658;DHT22;10488;50.846;4.078;2023-05-02T04:39:32;9.60;99.90
20658;DHT22;10488;50.846;4.078;2023-05-02T04:41:58;9.60;99.90
20658;DHT22;10488;50.846;4.078;2023-05-02T04:44:24;9.70;99.90
20658;DHT22;10488;50.846;4.078;2023-05-02T04:46:50;9.80;99.90
20658;DHT22;10488;50.846;4.078;2023-05-02T04:49:15;9.70;99.90
20658;DHT22;10488;50.846;4.078;2023-05-02T04:51:41;9.80;99.90
20658;DHT22;10488;50.846;4.078;2023-05-02T04:54:08;10.10;99.90
20658;DHT22;10488;50.846;4.078;2023-05-02T04:56:33;10.20;99.90
20658;DHT22;10488;50.846;4.078;2023-05-02T04:58:59;10.10;99.90
20658;DHT22;10488;50.846;4.078;2023-05-02T05:01:24;10.40;99.90
20658;DHT22;10488;50.846;4.078;2023-05-02T05:03:53;10.60;99.90
20658;DHT22;10488;50.846;4.078;2023-05-02T05:06:19;10.70;99.90
20658;DHT22;10488;50.846;4.078;2023-05-02T05:08:44;10.80;99.90
20658;DHT22;10488;50.846;4.078;2023-05-02T05:11:11;10.50;99.90
20658;DHT22;10488;50.846;4.078;2023-05-02T05:13:37;10.60;99.90
20658;DHT22;10488;50.846;4.078;2023-05-02T05:16:03;10.60;99.90
20658;DHT22;10488;50.846;4.078;2023-05-02T05:18:29;10.80;99.90
20658;DHT22;10488;50.846;4.078;2023-05-02T05:20:55;10.80;99.90
20658;DHT22;10488;50.846;4.078;2023-05-02T05:23:21;11.00;99.90
20658;DHT22;10488;50.846;4.078;2023-05-02T05:25:46;11.10;99.90
20658;DHT22;10488;50.846;4.078;2023-05-02T05:28:12;11.30;99.90
20658;DHT22;10488;50.846;4.078;2023-05-02T05:30:38;11.40;99.90
20658;DHT22;10488;50.846;4.078;2023-05-02T05:33:04;11.30;99.90
20658;DHT22;10488;50.846;4.078;2023-05-02T05:35:30;11.20;99.90
20658;DHT22;10488;50.846;4.078;2023-05-02T05:37:59;11.10;99.90
20658;DHT22;10488;50.846;4.078;2023-05-02T05:40:25;11.10;99.90
20658;DHT22;10488;50.846;4.078;2023-05-02T05:42:51;11.30;99.90
20658;DHT22;10488;50.846;4.078;2023-05-02T05:45:16;11.20;99.90
20658;DHT22;10488;50.846;4.078;2023-05-02T05:47:44;11.50;99.90
20658;DHT22;10488;50.846;4.078;2023-05-02T05:50:09;11.50;99.90
20658;DHT22;10488;50.846;4.078;2023-05-02T05:52:36;11.50;99.90
20658;DHT22;10488;50.846;4.078;2023-05-02T05:55:02;11.70;99.90
20658;DHT22;10488;50.846;4.078;2023-05-02T05:57:28;11.60;99.90
20658;DHT22;10488;50.846;4.078;2023-05-02T05:59:54;11.60;99.90
20658;DHT22;10488;50.846;4.078;2023-05-02T06:02:20;11.50;99.90
20658;DHT22;10488;50.846;4.078;2023-05-02T06:04:46;11.60;99.90
20658;DHT22;10488;50.846;4.078;2023-05-02T06:07:11;11.60;99.90
20658;DHT22;10488;50.846;4.078;2023-05-02T06:09:37;11.40;99.90
20658;DHT22;10488;50.846;4.078;2023-05-02T06:12:03;11.50;99.90
20658;DHT22;10488;50.846;4.078;2023-05-02T06:14:29;11.40;99.90
20658;DHT22;10488;50.846;4.078;2023-05-02T06:16:58;11.80;99.90
20658;DHT22;10488;50.846;4.078;2023-05-02T06:19:23;12.00;99.90
20658;DHT22;10488;50.846;4.078;2023-05-02T06:21:49;12.00;99.90
20658;DHT22;10488;50.846;4.078;2023-05-02T06:24:15;11.70;99.90
20658;DHT22;10488;50.846;4.078;2023-05-02T06:26:40;11.70;99.90
20658;DHT22;10488;50.846;4.078;2023-05-02T06:29:06;11.70;99.90
20658;DHT22;10488;50.846;4.078;2023-05-02T06:31:31;11.60;99.90
20658;DHT22;10488;50.846;4.078;2023-05-02T06:33:57;11.60;99.90
20658;DHT22;10488;50.846;4.078;2023-05-02T06:36:23;11.50;99.90
20658;DHT22;10488;50.846;4.078;2023-05-02T06:38:48;11.60;99.90
20658;DHT22;10488;50.846;4.078;2023-05-02T06:41:15;11.90;99.90
20658;DHT22;10488;50.846;4.078;2023-05-02T06:43:40;11.80;99.90
20658;DHT22;10488;50.846;4.078;2023-05-02T06:46:07;11.80;99.90
20658;DHT22;10488;50.846;4.078;2023-05-02T06:48:36;12.00;99.90
20658;DHT22;10488;50.846;4.078;2023-05-02T06:51:01;11.90;99.90
20658;DHT22;10488;50.846;4.078;2023-05-02T06:53:29;12.10;99.90
20658;DHT22;10488;50.846;4.078;2023-05-02T06:55:55;12.10;99.90
20658;DHT22;10488;50.846;4.078;2023-05-02T06:58:20;12.50;99.90
20658;DHT22;10488;50.846;4.078;2023-05-02T07:00:46;12.70;99.90
20658;DHT22;10488;50.846;4.078;2023-05-02T07:03:13;12.50;99.90
20658;DHT22;10488;50.846;4.078;2023-05-02T07:05:39;12.90;99.90
20658;DHT22;10488;50.846;4.078;2023-05-02T07:08:05;13.20;99.90
20658;DHT22;10488;50.846;4.078;2023-05-02T07:10:31;13.70;99.90
20658;DHT22;10488;50.846;4.078;2023-05-02T07:12:56;14.70;99.90
20658;DHT22;10488;50.846;4.078;2023-05-02T07:15:22;15.50;99.90
20658;DHT22;10488;50.846;4.078;2023-05-02T07:17:48;15.40;99.90
20658;DHT22;10488;50.846;4.078;2023-05-02T07:20:14;15.50;99.90
20658;DHT22;10488;50.846;4.078;2023-05-02T07:22:41;14.70;99.90
20658;DHT22;10488;50.846;4.078;2023-05-02T07:25:07;14.60;99.90
20658;DHT22;10488;50.846;4.078;2023-05-02T07:27:33;14.60;99.90
20658;DHT22;10488;50.846;4.078;2023-05-02T07:29:59;15.10;99.90
20658;DHT22;10488;50.846;4.078;2023-05-02T07:32:25;15.20;99.90
20658;DHT22;10488;50.846;4.078;2023-05-02T07:34:51;15.90;99.90
20658;DHT22;10488;50.846;4.078;2023-05-02T07:37:21;15.60;99.90
20658;DHT22;10488;50.846;4.078;2023-05-02T07:39:47;16.00;99.90
20658;DHT22;10488;50.846;4.078;2023-05-02T07:42:13;16.50;99.90
20658;DHT22;10488;50.846;4.078;2023-05-02T07:44:38;17.10;99.90
20658;DHT22;10488;50.846;4.078;2023-05-02T07:47:04;17.70;99.90
20658;DHT22;10488;50.846;4.078;2023-05-02T07:49:30;17.30;99.90
20658;DHT22;10488;50.846;4.078;2023-05-02T07:51:56;17.90;99.90
20658;DHT22;10488;50.846;4.078;2023-05-02T07:54:22;16.70;99.90
20658;DHT22;10488;50.846;4.078;2023-05-02T07:56:50;15.70;99.90
20658;DHT22;10488;50.846;4.078;2023-05-02T07:59:16;16.30;99.90
20658;DHT22;10488;50.846;4.078;2023-05-02T08:01:41;16.30;99.90
20658;DHT22;10488;50.846;4.078;2023-05-02T08:04:08;16.40;99.90
20658;DHT22;10488;50.846;4.078;2023-05-02T08:06:37;17.20;99.90
20658;DHT22;10488;50.846;4.078;2023-05-02T08:09:03;17.70;99.90
20658;DHT22;10488;50.846;4.078;2023-05-02T08:11:29;17.70;99.90
20658;DHT22;10488;50.846;4.078;2023-05-02T08:13:54;16.70;99.90
20658;DHT22;10488;50.846;4.078;2023-05-02T08:16:20;16.50;99.90
20658;DHT22;10488;50.846;4.078;2023-05-02T08:18:46;16.40;99.90
20658;DHT22;10488;50.846;4.078;2023-05-02T08:21:12;16.40;99.90
20658;DHT22;10488;50.846;4.078;2023-05-02T08:23:40;17.10;99.90
20658;DHT22;10488;50.846;4.078;2023-05-02T08:26:06;17.40;99.90
20658;DHT22;10488;50.846;4.078;2023-05-02T08:28:31;17.00;99.90
20658;DHT22;10488;50.846;4.078;2023-05-02T08:30:57;16.50;99.90
20658;DHT22;10488;50.846;4.078;2023-05-02T08:33:23;16.70;99.90
20658;DHT22;10488;50.846;4.078;2023-05-02T08:35:49;16.70;99.90
20658;DHT22;10488;50.846;4.078;2023-05-02T08:38:14;18.00;99.90
20658;DHT22;10488;50.846;4.078;2023-05-02T08:40:40;18.00;99.90
20658;DHT22;10488;50.846;4.078;2023-05-02T08:43:06;18.00;99.90
20658;DHT22;10488;50.846;4.078;2023-05-02T08:45:36;18.20;99.90
20658;DHT22;10488;50.846;4.078;2023-05-02T08:48:11;17.70;99.90
20658;DHT22;10488;50.846;4.078;2023-05-02T08:50:41;17.20;99.90
20658;DHT22;10488;50.846;4.078;2023-05-02T08:53:09;17.30;99.90
20658;DHT22;10488;50.846;4.078;2023-05-02T08:55:37;17.10;99.90
20658;DHT22;10488;50.846;4.078;2023-05-02T08:58:05;16.70;99.90
20658;DHT22;10488;50.846;4.078;2023-05-02T09:00:32;16.90;99.90
20658;DHT22;10488;50.846;4.078;2023-05-02T09:03:14;16.70;99.90
20658;DHT22;10488;50.846;4.078;2023-05-02T09:05:45;15.60;99.90
20658;DHT22;10488;50.846;4.078;2023-05-02T09:08:21;15.80;99.90
20658;DHT22;10488;50.846;4.078;2023-05-02T09:10:48;15.70;99.90
20658;DHT22;10488;50.846;4.078;2023-05-02T09:13:40;16.00;99.90
20658;DHT22;10488;50.846;4.078;2023-05-02T09:16:12;15.40;99.90
20658;DHT22;10488;50.846;4.078;2023-05-02T09:21:18;16.00;99.90
20658;DHT22;10488;50.846;4.078;2023-05-02T09:23:45;15.80;99.90
20658;DHT22;10488;50.846;4.078;2023-05-02T09:28:50;16.50;99.90
20658;DHT22;10488;50.846;4.078;2023-05-02T09:31:24;17.40;99.90
20658;DHT22;10488;50.846;4.078;2023-05-02T09:33:55;17.70;99.90
20658;DHT22;10488;50.846;4.078;2023-05-02T09:36:21;17.60;99.90
20658;DHT22;10488;50.846;4.078;2023-05-02T09:38:48;17.70;99.90
20658;DHT22;10488;50.846;4.078;2023-05-02T09:41:14;16.70;99.90
20658;DHT22;10488;50.846;4.078;2023-05-02T09:43:42;17.60;99.90
20658;DHT22;10488;50.846;4.078;2023-05-02T09:46:09;16.30;99.90
20658;DHT22;10488;50.846;4.078;2023-05-02T09:48:55;16.80;99.90
20658;DHT22;10488;50.846;4.078;2023-05-02T09:51:23;17.10;99.90
20658;DHT22;10488;50.846;4.078;2023-05-02T09:53:50;16.70;99.90
20658;DHT22;10488;50.846;4.078;2023-05-02T09:56:16;16.60;99.90
20658;DHT22;10488;50.846;4.078;2023-05-02T09:58:42;16.60;99.90
20658;DHT22;10488;50.846;4.078;2023-05-02T10:01:13;16.50;99.90
20658;DHT22;10488;50.846;4.078;2023-05-02T10:03:40;16.70;99.90
20658;DHT22;10488;50.846;4.078;2023-05-02T10:06:08;16.80;99.90
20658;DHT22;10488;50.846;4.078;2023-05-02T10:08:34;16.50;99.90
20658;DHT22;10488;50.846;4.078;2023-05-02T10:11:03;16.10;99.90
20658;DHT22;10488;50.846;4.078;2023-05-02T10:13:31;16.50;99.90
20658;DHT22;10488;50.846;4.078;2023-05-02T10:15:59;16.30;99.90
20658;DHT22;10488;50.846;4.078;2023-05-02T10:21:19;16.10;99.90
20658;DHT22;10488;50.846;4.078;2023-05-02T10:23:49;16.40;99.90
20658;DHT22;10488;50.846;4.078;2023-05-02T10:26:17;16.90;99.90
20658;DHT22;10488;50.846;4.078;2023-05-02T10:28:45;16.90;99.90
20658;DHT22;10488;50.846;4.078;2023-05-02T10:31:12;16.80;99.90
20658;DHT22;10488;50.846;4.078;2023-05-02T10:33:39;17.00;99.90
20658;DHT22;10488;50.846;4.078;2023-05-02T10:36:07;16.80;99.90
20658;DHT22;10488;50.846;4.078;2023-05-02T10:38:33;17.10;99.90
20658;DHT22;10488;50.846;4.078;2023-05-02T10:41:02;16.60;99.90
20658;DHT22;10488;50.846;4.078;2023-05-02T10:43:34;16.80;99.90
20658;DHT22;10488;50.846;4.078;2023-05-02T10:46:01;15.90;99.90
20658;DHT22;10488;50.846;4.078;2023-05-02T10:48:28;16.30;99.90
20658;DHT22;10488;50.846;4.078;2023-05-02T10:50:55;16.70;99.90
20658;DHT22;10488;50.846;4.078;2023-05-02T10:53:32;16.50;99.90
20658;DHT22;10488;50.846;4.078;2023-05-02T10:58:40;17.30;99.90
20658;DHT22;10488;50.846;4.078;2023-05-02T11:03:57;17.70;99.90
20658;DHT22;10488;50.846;4.078;2023-05-02T11:06:27;17.60;99.90
20658;DHT22;10488;50.846;4.078;2023-05-02T11:11:46;16.50;99.90
20658;DHT22;10488;50.846;4.078;2023-05-02T11:19:57;17.30;99.90
20658;DHT22;10488;50.846;4.078;2023-05-02T11:24:46;16.30;99.90
20658;DHT22;10488;50.846;4.078;2023-05-02T11:30:39;16.40;99.90
20658;DHT22;10488;50.846;4.078;2023-05-02T11:35:31;17.00;99.90
20658;DHT22;10488;50.846;4.078;2023-05-02T11:38:04;16.60;99.90
20658;DHT22;10488;50.846;4.078;2023-05-02T11:40:30;16.40;99.90
20658;DHT22;10488;50.846;4.078;2023-05-02T11:42:57;16.50;99.90
20658;DHT22;10488;50.846;4.078;2023-05-02T11:45:34;16.60;99.90
20658;DHT22;10488;50.846;4.078;2023-05-02T11:48:11;16.70;99.90
20658;DHT22;10488;50.846;4.078;2023-05-02T11:50:50;17.30;99.90
20658;DHT22;10488;50.846;4.078;2023-05-02T11:53:24;17.50;99.90
20658;DHT22;10488;50.846;4.078;2023-05-02T11:55:52;17.30;99.90
20658;DHT22;10488;50.846;4.078;2023-05-02T11:58:23;17.10;99.90
20658;DHT22;10488;50.846;4.078;2023-05-02T12:00:50;17.20;99.90
20658;DHT22;10488;50.846;4.078;2023-05-02T12:03:30;17.30;99.90
20658;DHT22;10488;50.846;4.078;2023-05-02T12:05:57;17.40;99.90
20658;DHT22;10488;50.846;4.078;2023-05-02T12:08:32;17.00;99.90
20658;DHT22;10488;50.846;4.078;2023-05-02T12:10:58;17.20;99.90
20658;DHT22;10488;50.846;4.078;2023-05-02T12:13:24;17.20;99.90
20658;DHT22;10488;50.846;4.078;2023-05-02T12:15:51;17.00;99.90
20658;DHT22;10488;50.846;4.078;2023-05-02T12:18:19;17.30;99.90
20658;DHT22;10488;50.846;4.078;2023-05-02T12:20:48;17.30;99.90
20658;DHT22;10488;50.846;4.078;2023-05-02T12:23:14;17.50;99.90
20658;DHT22;10488;50.846;4.078;2023-05-02T12:25:41;17.60;99.90
20658;DHT22;10488;50.846;4.078;2023-05-02T12:28:07;17.80;99.90
20658;DHT22;10488;50.846;4.078;2023-05-02T12:30:34;17.50;99.90
20658;DHT22;10488;50.846;4.078;2023-05-02T12:33:03;17.00;99.90
20658;DHT22;10488;50.846;4.078;2023-05-02T12:35:30;17.20;99.90
20658;DHT22;10488;50.846;4.078;2023-05-02T12:38:17;17.20;99.90
20658;DHT22;10488;50.846;4.078;2023-05-02T12:40:51;16.20;99.90
20658;DHT22;10488;50.846;4.078;2023-05-02T12:43:18;16.20;99.90
20658;DHT22;10488;50.846;4.078;2023-05-02T12:45:44;16.40;99.90
20658;DHT22;10488;50.846;4.078;2023-05-02T12:48:17;16.90;99.90
20658;DHT22;10488;50.846;4.078;2023-05-02T12:50:43;16.80;99.90
20658;DHT22;10488;50.846;4.078;2023-05-02T12:53:09;17.00;99.90
20658;DHT22;10488;50.846;4.078;2023-05-02T12:55:35;17.20;99.90
20658;DHT22;10488;50.846;4.078;2023-05-02T12:58:06;17.40;99.90
20658;DHT22;10488;50.846;4.078;2023-05-02T13:00:34;17.30;99.90
20658;DHT22;10488;50.846;4.078;2023-05-02T13:03:00;17.70;99.90
20658;DHT22;10488;50.846;4.078;2023-05-02T13:05:26;18.10;99.90
20658;DHT22;10488;50.846;4.078;2023-05-02T13:07:52;17.70;99.90
20658;DHT22;10488;50.846;4.078;2023-05-02T13:10:18;17.60;99.90
20658;DHT22;10488;50.846;4.078;2023-05-02T13:12:44;17.30;99.90
20658;DHT22;10488;50.846;4.078;2023-05-02T13:15:11;17.00;99.90
20658;DHT22;10488;50.846;4.078;2023-05-02T13:17:37;16.70;99.90
20658;DHT22;10488;50.846;4.078;2023-05-02T13:20:02;16.60;99.90
20658;DHT22;10488;50.846;4.078;2023-05-02T13:22:28;17.00;99.90
20658;DHT22;10488;50.846;4.078;2023-05-02T13:24:54;16.90;99.90
20658;DHT22;10488;50.846;4.078;2023-05-02T13:27:23;17.00;99.90
20658;DHT22;10488;50.846;4.078;2023-05-02T13:29:49;16.80;99.90
20658;DHT22;10488;50.846;4.078;2023-05-02T13:32:15;16.70;99.90
20658;DHT22;10488;50.846;4.078;2023-05-02T13:34:41;16.90;99.90
20658;DHT22;10488;50.846;4.078;2023-05-02T13:37:07;17.10;99.90
20658;DHT22;10488;50.846;4.078;2023-05-02T13:39:32;16.90;99.90
20658;DHT22;10488;50.846;4.078;2023-05-02T13:41:58;16.70;99.90
20658;DHT22;10488;50.846;4.078;2023-05-02T13:44:24;16.70;99.90
20658;DHT22;10488;50.846;4.078;2023-05-02T13:46:50;16.50;99.90
20658;DHT22;10488;50.846;4.078;2023-05-02T13:49:15;16.60;99.90
20658;DHT22;10488;50.846;4.078;2023-05-02T13:51:41;16.70;99.90
20658;DHT22;10488;50.846;4.078;2023-05-02T13:54:07;16.40;99.90
20658;DHT22;10488;50.846;4.078;2023-05-02T13:56:32;16.10;99.90
20658;DHT22;10488;50.846;4.078;2023-05-02T13:58:58;16.10;99.90
20658;DHT22;10488;50.846;4.078;2023-05-02T14:01:23;16.10;99.90
20658;DHT22;10488;50.846;4.078;2023-05-02T14:03:52;16.40;99.90
20658;DHT22;10488;50.846;4.078;2023-05-02T14:06:18;16.70;99.90
20658;DHT22;10488;50.846;4.078;2023-05-02T14:08:44;16.60;99.90
20658;DHT22;10488;50.846;4.078;2023-05-02T14:11:10;16.50;99.90
20658;DHT22;10488;50.846;4.078;2023-05-02T14:13:36;16.70;99.90
20658;DHT22;10488;50.846;4.078;2023-05-02T14:16:02;16.60;99.90
20658;DHT22;10488;50.846;4.078;2023-05-02T14:18:28;16.30;99.90
20658;DHT22;10488;50.846;4.078;2023-05-02T14:20:53;16.20;99.90
20658;DHT22;10488;50.846;4.078;2023-05-02T14:23:22;16.10;99.90
20658;DHT22;10488;50.846;4.078;2023-05-02T14:25:47;16.20;99.90
20658;DHT22;10488;50.846;4.078;2023-05-02T14:28:13;16.30;99.90
20658;DHT22;10488;50.846;4.078;2023-05-02T14:30:39;16.20;99.90
20658;DHT22;10488;50.846;4.078;2023-05-02T14:33:05;16.40;99.90
20658;DHT22;10488;50.846;4.078;2023-05-02T14:35:30;16.40;99.90
20658;DHT22;10488;50.846;4.078;2023-05-02T14:37:56;16.50;99.90
20658;DHT22;10488;50.846;4.078;2023-05-02T14:40:22;16.60;99.90
20658;DHT22;10488;50.846;4.078;2023-05-02T14:42:47;16.70;99.90
20658;DHT22;10488;50.846;4.078;2023-05-02T14:45:13;16.70;99.90
20658;DHT22;10488;50.846;4.078;2023-05-02T14:47:39;16.60;99.90
20658;DHT22;10488;50.846;4.078;2023-05-02T14:50:05;16.20;99.90
20658;DHT22;10488;50.846;4.078;2023-05-02T14:52:31;16.00;99.90
20658;DHT22;10488;50.846;4.078;2023-05-02T14:55:00;15.80;99.90
20658;DHT22;10488;50.846;4.078;2023-05-02T14:57:26;16.00;99.90
20658;DHT22;10488;50.846;4.078;2023-05-02T14:59:53;16.00;99.90
20658;DHT22;10488;50.846;4.078;2023-05-02T15:02:19;15.80;99.90
20658;DHT22;10488;50.846;4.078;2023-05-02T15:04:46;15.80;99.90
20658;DHT22;10488;50.846;4.078;2023-05-02T15:07:11;16.00;99.90
20658;DHT22;10488;50.846;4.078;2023-05-02T15:09:37;15.80;99.90
20658;DHT22;10488;50.846;4.078;2023-05-02T15:12:03;15.90;99.90
20658;DHT22;10488;50.846;4.078;2023-05-02T15:14:28;15.70;99.90
20658;DHT22;10488;50.846;4.078;2023-05-02T15:16:54;15.70;99.90
20658;DHT22;10488;50.846;4.078;2023-05-02T15:19:20;15.70;99.90
20658;DHT22;10488;50.846;4.078;2023-05-02T15:21:50;15.90;99.90
20658;DHT22;10488;50.846;4.078;2023-05-02T15:24:18;15.70;99.90
20658;DHT22;10488;50.846;4.078;2023-05-02T15:26:44;15.80;99.90
20658;DHT22;10488;50.846;4.078;2023-05-02T15:29:10;15.90;99.90
20658;DHT22;10488;50.846;4.078;2023-05-02T15:31:36;16.00;99.90
20658;DHT22;10488;50.846;4.078;2023-05-02T15:34:02;16.10;99.90
20658;DHT22;10488;50.846;4.078;2023-05-02T15:36:28;16.00;99.90
20658;DHT22;10488;50.846;4.078;2023-05-02T15:38:57;15.60;99.90
20658;DHT22;10488;50.846;4.078;2023-05-02T15:41:26;15.40;99.90
20658;DHT22;10488;50.846;4.078;2023-05-02T15:43:52;15.40;99.90
20658;DHT22;10488;50.846;4.078;2023-05-02T15:46:18;15.50;99.90
20658;DHT22;10488;50.846;4.078;2023-05-02T15:48:44;15.60;99.90
20658;DHT22;10488;50.846;4.078;2023-05-02T15:51:09;15.70;99.90
20658;DHT22;10488;50.846;4.078;2023-05-02T15:53:38;15.50;99.90
20658;DHT22;10488;50.846;4.078;2023-05-02T15:56:09;15.50;99.90
20658;DHT22;10488;50.846;4.078;2023-05-02T15:58:35;15.50;99.90
20658;DHT22;10488;50.846;4.078;2023-05-02T16:01:00;15.40;99.90
20658;DHT22;10488;50.846;4.078;2023-05-02T16:03:26;15.30;99.90
20658;DHT22;10488;50.846;4.078;2023-05-02T16:05:52;15.30;99.90
20658;DHT22;10488;50.846;4.078;2023-05-02T16:08:19;15.40;99.90
20658;DHT22;10488;50.846;4.078;2023-05-02T16:10:45;15.50;99.90
20658;DHT22;10488;50.846;4.078;2023-05-02T16:13:11;15.40;99.90
20658;DHT22;10488;50.846;4.078;2023-05-02T16:15:37;15.40;99.90
20658;DHT22;10488;50.846;4.078;2023-05-02T16:18:03;15.80;99.90
20658;DHT22;10488;50.846;4.078;2023-05-02T16:20:29;15.80;99.90
20658;DHT22;10488;50.846;4.078;2023-05-02T16:22:57;15.70;99.90
20658;DHT22;10488;50.846;4.078;2023-05-02T16:25:24;15.60;99.90